sensor_id;sensor_type;location;lat;lon;timestamp;P1;durP1;ratioP1;P2;durP2;ratioP2
84757;SDS011;74981;52.476;16.656;2024-02-26T00:04:49;45.60;;;26.20;;
84757;SDS011;74981;52.476;16.656;2024-02-26T00:09:52;43.20;;;24.40;;
84757;SDS011;74981;52.476;16.656;2024-02-26T00:14:54;52.10;;;31.40;;
84757;SDS011;74981;52.476;16.656;2024-02-26T00:19:56;49.80;;;28.00;;
84757;SDS011;74981;52.476;16.656;2024-02-26T00:24:58;47.60;;;26.90;;
84757;SDS011;74981;52.476;16.656;2024-02-26T00:30:01;51.80;;;27.80;;
84757;SDS011;74981;52.476;16.656;2024-02-26T00:35:03;50.20;;;27.00;;
84757;SDS011;74981;52.476;16.656;2024-02-26T00:40:07;51.90;;;29.00;;
84757;SDS011;74981;52.476;16.656;2024-02-26T00:45:10;48.40;;;29.90;;
84757;SDS011;74981;52.476;16.656;2024-02-26T00:50:12;54.60;;;32.20;;
84757;SDS011;74981;52.476;16.656;2024-02-26T00:55:15;44.60;;;26.00;;
84757;SDS011;74981;52.476;16.656;2024-02-26T01:00:18;51.20;;;30.40;;
84757;SDS011;74981;52.476;16.656;2024-02-26T01:05:21;46.80;;;28.40;;
84757;SDS011;74981;52.476;16.656;2024-02-26T01:10:23;51.80;;;31.10;;
84757;SDS011;74981;52.476;16.656;2024-02-26T01:15:25;39.20;;;23.60;;
84757;SDS011;74981;52.476;16.656;2024-02-26T01:20:28;39.30;;;24.70;;
84757;SDS011;74981;52.476;16.656;2024-02-26T01:25:30;41.30;;;23.40;;
84757;SDS011;74981;52.476;16.656;2024-02-26T01:30:33;49.00;;;27.30;;
84757;SDS011;74981;52.476;16.656;2024-02-26T01:35:35;45.10;;;25.60;;
84757;SDS011;74981;52.476;16.656;2024-02-26T01:40:37;42.80;;;26.30;;
84757;SDS011;74981;52.476;16.656;2024-02-26T01:45:40;42.80;;;26.30;;
84757;SDS011;74981;52.476;16.656;2024-02-26T01:50:42;49.50;;;26.70;;
84757;SDS011;74981;52.476;16.656;2024-02-26T01:55:44;40.20;;;25.60;;
84757;SDS011;74981;52.476;16.656;2024-02-26T02:00:46;40.30;;;25.40;;
84757;SDS011;74981;52.476;16.656;2024-02-26T02:05:49;41.80;;;24.90;;
84757;SDS011;74981;52.476;16.656;2024-02-26T02:10:51;43.50;;;27.50;;
84757;SDS011;74981;52.476;16.656;2024-02-26T02:15:54;39.30;;;23.00;;
84757;SDS011;74981;52.476;16.656;2024-02-26T02:20:56;41.20;;;25.50;;
84757;SDS011;74981;52.476;16.656;2024-02-26T02:26:00;39.40;;;22.00;;
84757;SDS011;74981;52.476;16.656;2024-02-26T02:31:04;48.20;;;27.20;;
84757;SDS011;74981;52.476;16.656;2024-02-26T02:36:06;41.30;;;23.40;;
84757;SDS011;74981;52.476;16.656;2024-02-26T02:41:09;37.80;;;22.40;;
84757;SDS011;74981;52.476;16.656;2024-02-26T02:46:11;37.00;;;24.00;;
84757;SDS011;74981;52.476;16.656;2024-02-26T02:51:13;46.10;;;27.30;;
84757;SDS011;74981;52.476;16.656;2024-02-26T02:56:16;38.00;;;22.50;;
84757;SDS011;74981;52.476;16.656;2024-02-26T03:01:18;37.70;;;22.40;;
84757;SDS011;74981;52.476;16.656;2024-02-26T03:06:21;46.30;;;26.20;;
84757;SDS011;74981;52.476;16.656;2024-02-26T03:11:23;36.50;;;20.90;;
84757;SDS011;74981;52.476;16.656;2024-02-26T03:16:26;36.80;;;20.20;;
84757;SDS011;74981;52.476;16.656;2024-02-26T03:21:28;36.40;;;20.80;;
84757;SDS011;74981;52.476;16.656;2024-02-26T03:26:30;36.60;;;22.00;;
84757;SDS011;74981;52.476;16.656;2024-02-26T03:31:34;40.00;;;23.10;;
84757;SDS011;74981;52.476;16.656;2024-02-26T03:36:36;37.60;;;22.70;;
84757;SDS011;74981;52.476;16.656;2024-02-26T03:41:38;36.50;;;21.30;;
84757;SDS011;74981;52.476;16.656;2024-02-26T03:46:40;44.60;;;24.90;;
84757;SDS011;74981;52.476;16.656;2024-02-26T03:51:43;38.50;;;22.60;;
84757;SDS011;74981;52.476;16.656;2024-02-26T03:56:45;37.20;;;21.80;;
84757;SDS011;74981;52.476;16.656;2024-02-26T04:01:47;35.40;;;20.20;;
84757;SDS011;74981;52.476;16.656;2024-02-26T04:06:49;40.50;;;22.90;;
84757;SDS011;74981;52.476;16.656;2024-02-26T04:11:51;33.40;;;19.50;;
84757;SDS011;74981;52.476;16.656;2024-02-26T04:16:54;35.70;;;21.10;;
84757;SDS011;74981;52.476;16.656;2024-02-26T04:21:56;35.90;;;19.30;;
84757;SDS011;74981;52.476;16.656;2024-02-26T04:26:59;42.10;;;24.80;;
84757;SDS011;74981;52.476;16.656;2024-02-26T04:32:01;32.70;;;20.20;;
84757;SDS011;74981;52.476;16.656;2024-02-26T04:37:04;34.80;;;19.90;;
84757;SDS011;74981;52.476;16.656;2024-02-26T04:42:06;37.00;;;23.10;;
84757;SDS011;74981;52.476;16.656;2024-02-26T04:47:08;35.10;;;21.50;;
84757;SDS011;74981;52.476;16.656;2024-02-26T04:52:11;45.30;;;23.60;;
84757;SDS011;74981;52.476;16.656;2024-02-26T04:57:13;38.70;;;22.80;;
84757;SDS011;74981;52.476;16.656;2024-02-26T05:02:15;34.50;;;19.50;;
84757;SDS011;74981;52.476;16.656;2024-02-26T05:07:17;32.10;;;18.80;;
84757;SDS011;74981;52.476;16.656;2024-02-26T05:12:20;32.60;;;18.40;;
84757;SDS011;74981;52.476;16.656;2024-02-26T05:17:22;47.70;;;24.30;;
84757;SDS011;74981;52.476;16.656;2024-02-26T05:22:24;35.30;;;21.60;;
84757;SDS011;74981;52.476;16.656;2024-02-26T05:27:26;34.40;;;17.60;;
84757;SDS011;74981;52.476;16.656;2024-02-26T05:32:29;35.30;;;20.20;;
84757;SDS011;74981;52.476;16.656;2024-02-26T05:37:31;35.80;;;21.20;;
84757;SDS011;74981;52.476;16.656;2024-02-26T05:42:33;35.10;;;22.20;;
84757;SDS011;74981;52.476;16.656;2024-02-26T05:47:36;34.10;;;20.90;;
84757;SDS011;74981;52.476;16.656;2024-02-26T05:52:40;34.80;;;18.70;;
84757;SDS011;74981;52.476;16.656;2024-02-26T05:57:42;39.30;;;22.40;;
84757;SDS011;74981;52.476;16.656;2024-02-26T06:02:44;33.40;;;20.60;;
84757;SDS011;74981;52.476;16.656;2024-02-26T06:07:47;36.30;;;20.90;;
84757;SDS011;74981;52.476;16.656;2024-02-26T06:12:49;35.70;;;21.10;;
84757;SDS011;74981;52.476;16.656;2024-02-26T06:17:51;51.20;;;27.50;;
84757;SDS011;74981;52.476;16.656;2024-02-26T06:22:53;43.20;;;25.00;;
84757;SDS011;74981;52.476;16.656;2024-02-26T06:27:56;43.30;;;25.60;;
84757;SDS011;74981;52.476;16.656;2024-02-26T06:32:58;43.00;;;26.10;;
84757;SDS011;74981;52.476;16.656;2024-02-26T06:38:01;49.10;;;24.90;;
84757;SDS011;74981;52.476;16.656;2024-02-26T06:43:03;37.40;;;22.50;;
84757;SDS011;74981;52.476;16.656;2024-02-26T06:48:07;28.00;;;16.50;;
84757;SDS011;74981;52.476;16.656;2024-02-26T06:53:09;36.10;;;21.40;;
84757;SDS011;74981;52.476;16.656;2024-02-26T06:58:12;32.00;;;21.00;;
84757;SDS011;74981;52.476;16.656;2024-02-26T07:03:14;25.00;;;17.20;;
84757;SDS011;74981;52.476;16.656;2024-02-26T07:08:16;27.80;;;18.10;;
84757;SDS011;74981;52.476;16.656;2024-02-26T07:13:19;27.50;;;17.50;;
84757;SDS011;74981;52.476;16.656;2024-02-26T07:18:21;30.70;;;17.90;;
84757;SDS011;74981;52.476;16.656;2024-02-26T07:23:24;30.70;;;19.50;;
84757;SDS011;74981;52.476;16.656;2024-02-26T07:28:26;32.50;;;20.80;;
84757;SDS011;74981;52.476;16.656;2024-02-26T07:33:29;36.10;;;23.20;;
84757;SDS011;74981;52.476;16.656;2024-02-26T07:38:31;41.70;;;23.50;;
84757;SDS011;74981;52.476;16.656;2024-02-26T07:43:33;44.40;;;28.90;;
84757;SDS011;74981;52.476;16.656;2024-02-26T07:48:35;38.60;;;23.10;;
84757;SDS011;74981;52.476;16.656;2024-02-26T07:53:38;35.30;;;21.40;;
84757;SDS011;74981;52.476;16.656;2024-02-26T07:58:40;36.70;;;22.90;;
84757;SDS011;74981;52.476;16.656;2024-02-26T08:03:42;35.80;;;21.30;;
84757;SDS011;74981;52.476;16.656;2024-02-26T08:08:44;35.40;;;20.50;;
84757;SDS011;74981;52.476;16.656;2024-02-26T08:13:47;32.70;;;19.60;;
84757;SDS011;74981;52.476;16.656;2024-02-26T08:18:50;29.10;;;18.30;;
84757;SDS011;74981;52.476;16.656;2024-02-26T08:23:52;34.60;;;19.50;;
84757;SDS011;74981;52.476;16.656;2024-02-26T08:28:54;43.10;;;22.80;;
84757;SDS011;74981;52.476;16.656;2024-02-26T08:33:57;27.20;;;14.60;;
84757;SDS011;74981;52.476;16.656;2024-02-26T08:39:00;31.10;;;19.10;;
84757;SDS011;74981;52.476;16.656;2024-02-26T08:44:02;34.60;;;20.70;;
84757;SDS011;74981;52.476;16.656;2024-02-26T08:49:05;38.50;;;21.80;;
84757;SDS011;74981;52.476;16.656;2024-02-26T08:54:07;31.10;;;19.10;;
84757;SDS011;74981;52.476;16.656;2024-02-26T08:59:10;34.00;;;20.50;;
84757;SDS011;74981;52.476;16.656;2024-02-26T09:04:12;32.80;;;19.80;;
84757;SDS011;74981;52.476;16.656;2024-02-26T09:09:14;31.20;;;18.80;;
84757;SDS011;74981;52.476;16.656;2024-02-26T09:14:17;28.40;;;18.90;;
84757;SDS011;74981;52.476;16.656;2024-02-26T09:19:19;30.00;;;18.80;;
84757;SDS011;74981;52.476;16.656;2024-02-26T09:24:21;21.10;;;12.10;;
84757;SDS011;74981;52.476;16.656;2024-02-26T09:29:24;25.30;;;17.00;;
84757;SDS011;74981;52.476;16.656;2024-02-26T09:34:26;23.00;;;15.40;;
84757;SDS011;74981;52.476;16.656;2024-02-26T09:39:28;23.40;;;11.50;;
84757;SDS011;74981;52.476;16.656;2024-02-26T09:44:31;18.00;;;10.30;;
84757;SDS011;74981;52.476;16.656;2024-02-26T09:49:37;21.00;;;10.70;;
84757;SDS011;74981;52.476;16.656;2024-02-26T09:54:40;22.40;;;12.60;;
84757;SDS011;74981;52.476;16.656;2024-02-26T09:59:44;21.30;;;12.30;;
84757;SDS011;74981;52.476;16.656;2024-02-26T10:04:48;19.50;;;10.40;;
84757;SDS011;74981;52.476;16.656;2024-02-26T10:09:51;25.00;;;13.90;;
84757;SDS011;74981;52.476;16.656;2024-02-26T10:14:53;27.20;;;15.60;;
84757;SDS011;74981;52.476;16.656;2024-02-26T10:19:56;16.40;;;9.40;;
84757;SDS011;74981;52.476;16.656;2024-02-26T10:25:20;26.40;;;14.00;;
84757;SDS011;74981;52.476;16.656;2024-02-26T10:30:23;22.90;;;14.80;;
84757;SDS011;74981;52.476;16.656;2024-02-26T10:35:25;19.40;;;11.90;;
84757;SDS011;74981;52.476;16.656;2024-02-26T10:40:27;22.70;;;14.50;;
84757;SDS011;74981;52.476;16.656;2024-02-26T10:45:30;21.50;;;14.30;;
84757;SDS011;74981;52.476;16.656;2024-02-26T10:55:35;19.80;;;10.80;;
84757;SDS011;74981;52.476;16.656;2024-02-26T11:00:39;18.70;;;11.50;;
84757;SDS011;74981;52.476;16.656;2024-02-26T11:05:42;23.10;;;14.40;;
84757;SDS011;74981;52.476;16.656;2024-02-26T11:10:45;21.30;;;12.00;;
84757;SDS011;74981;52.476;16.656;2024-02-26T11:15:49;21.40;;;12.40;;
84757;SDS011;74981;52.476;16.656;2024-02-26T11:20:52;18.40;;;11.80;;
84757;SDS011;74981;52.476;16.656;2024-02-26T11:25:56;21.70;;;13.40;;
84757;SDS011;74981;52.476;16.656;2024-02-26T11:31:00;15.10;;;9.80;;
84757;SDS011;74981;52.476;16.656;2024-02-26T11:36:07;16.20;;;9.80;;
84757;SDS011;74981;52.476;16.656;2024-02-26T11:41:10;13.70;;;8.30;;
84757;SDS011;74981;52.476;16.656;2024-02-26T11:46:24;17.50;;;11.10;;
84757;SDS011;74981;52.476;16.656;2024-02-26T11:51:27;17.90;;;10.90;;
84757;SDS011;74981;52.476;16.656;2024-02-26T11:56:34;11.80;;;7.80;;
84757;SDS011;74981;52.476;16.656;2024-02-26T12:01:37;15.30;;;9.30;;
84757;SDS011;74981;52.476;16.656;2024-02-26T12:11:43;15.00;;;8.80;;
84757;SDS011;74981;52.476;16.656;2024-02-26T12:16:47;14.80;;;8.90;;
84757;SDS011;74981;52.476;16.656;2024-02-26T12:21:51;15.70;;;9.00;;
84757;SDS011;74981;52.476;16.656;2024-02-26T12:26:54;13.10;;;7.80;;
84757;SDS011;74981;52.476;16.656;2024-02-26T12:31:56;15.30;;;10.40;;
84757;SDS011;74981;52.476;16.656;2024-02-26T12:36:59;13.30;;;8.50;;
84757;SDS011;74981;52.476;16.656;2024-02-26T12:42:03;14.90;;;8.50;;
84757;SDS011;74981;52.476;16.656;2024-02-26T12:47:06;17.80;;;10.80;;
84757;SDS011;74981;52.476;16.656;2024-02-26T12:52:08;17.40;;;8.80;;
84757;SDS011;74981;52.476;16.656;2024-02-26T12:57:11;17.00;;;8.80;;
84757;SDS011;74981;52.476;16.656;2024-02-26T13:02:14;17.50;;;10.60;;
84757;SDS011;74981;52.476;16.656;2024-02-26T13:07:17;14.10;;;8.50;;
84757;SDS011;74981;52.476;16.656;2024-02-26T13:12:19;17.30;;;10.30;;
84757;SDS011;74981;52.476;16.656;2024-02-26T13:17:22;15.50;;;8.80;;
84757;SDS011;74981;52.476;16.656;2024-02-26T13:22:24;13.60;;;7.40;;
84757;SDS011;74981;52.476;16.656;2024-02-26T13:27:26;16.90;;;8.50;;
84757;SDS011;74981;52.476;16.656;2024-02-26T13:32:29;16.10;;;9.00;;
84757;SDS011;74981;52.476;16.656;2024-02-26T13:42:34;16.50;;;10.30;;
84757;SDS011;74981;52.476;16.656;2024-02-26T13:47:37;16.30;;;11.00;;
84757;SDS011;74981;52.476;16.656;2024-02-26T13:52:39;15.00;;;10.00;;
84757;SDS011;74981;52.476;16.656;2024-02-26T13:57:41;18.70;;;9.50;;
84757;SDS011;74981;52.476;16.656;2024-02-26T14:02:43;14.60;;;7.60;;
84757;SDS011;74981;52.476;16.656;2024-02-26T14:07:46;14.00;;;8.30;;
84757;SDS011;74981;52.476;16.656;2024-02-26T14:12:48;16.30;;;9.60;;
84757;SDS011;74981;52.476;16.656;2024-02-26T14:17:51;20.00;;;9.40;;
84757;SDS011;74981;52.476;16.656;2024-02-26T14:22:53;16.10;;;9.50;;
84757;SDS011;74981;52.476;16.656;2024-02-26T14:27:55;14.70;;;8.90;;
84757;SDS011;74981;52.476;16.656;2024-02-26T14:32:57;16.80;;;9.20;;
84757;SDS011;74981;52.476;16.656;2024-02-26T14:38:00;18.60;;;11.60;;
84757;SDS011;74981;52.476;16.656;2024-02-26T14:43:02;12.70;;;7.40;;
84757;SDS011;74981;52.476;16.656;2024-02-26T14:48:06;18.30;;;10.20;;
84757;SDS011;74981;52.476;16.656;2024-02-26T14:53:09;16.20;;;9.40;;
84757;SDS011;74981;52.476;16.656;2024-02-26T14:58:11;14.40;;;7.20;;
84757;SDS011;74981;52.476;16.656;2024-02-26T15:03:13;14.90;;;8.60;;
84757;SDS011;74981;52.476;16.656;2024-02-26T15:08:16;19.50;;;9.80;;
84757;SDS011;74981;52.476;16.656;2024-02-26T15:13:18;17.60;;;10.70;;
84757;SDS011;74981;52.476;16.656;2024-02-26T15:18:20;17.40;;;9.10;;
84757;SDS011;74981;52.476;16.656;2024-02-26T15:23:22;15.60;;;9.20;;
84757;SDS011;74981;52.476;16.656;2024-02-26T15:28:25;19.50;;;9.30;;
84757;SDS011;74981;52.476;16.656;2024-02-26T15:33:28;19.70;;;10.40;;
84757;SDS011;74981;52.476;16.656;2024-02-26T15:38:31;28.60;;;17.40;;
84757;SDS011;74981;52.476;16.656;2024-02-26T15:43:33;24.00;;;13.50;;
84757;SDS011;74981;52.476;16.656;2024-02-26T15:48:36;22.80;;;12.00;;
84757;SDS011;74981;52.476;16.656;2024-02-26T15:53:39;21.70;;;12.10;;
84757;SDS011;74981;52.476;16.656;2024-02-26T15:58:41;18.10;;;11.50;;
84757;SDS011;74981;52.476;16.656;2024-02-26T16:03:43;22.90;;;12.30;;
84757;SDS011;74981;52.476;16.656;2024-02-26T16:08:46;29.10;;;14.10;;
84757;SDS011;74981;52.476;16.656;2024-02-26T16:13:50;17.60;;;9.70;;
84757;SDS011;74981;52.476;16.656;2024-02-26T16:19:05;24.60;;;12.70;;
84757;SDS011;74981;52.476;16.656;2024-02-26T16:24:10;22.50;;;11.00;;
84757;SDS011;74981;52.476;16.656;2024-02-26T16:29:12;29.80;;;14.00;;
84757;SDS011;74981;52.476;16.656;2024-02-26T16:34:15;24.50;;;13.90;;
84757;SDS011;74981;52.476;16.656;2024-02-26T16:39:17;29.60;;;13.80;;
84757;SDS011;74981;52.476;16.656;2024-02-26T16:44:19;22.10;;;11.30;;
84757;SDS011;74981;52.476;16.656;2024-02-26T16:49:22;23.00;;;12.70;;
84757;SDS011;74981;52.476;16.656;2024-02-26T16:54:24;37.10;;;15.10;;
84757;SDS011;74981;52.476;16.656;2024-02-26T16:59:26;44.50;;;18.70;;
84757;SDS011;74981;52.476;16.656;2024-02-26T17:04:29;35.90;;;16.30;;
84757;SDS011;74981;52.476;16.656;2024-02-26T17:09:32;27.20;;;14.40;;
84757;SDS011;74981;52.476;16.656;2024-02-26T17:14:35;24.90;;;14.40;;
84757;SDS011;74981;52.476;16.656;2024-02-26T17:19:37;28.50;;;15.50;;
84757;SDS011;74981;52.476;16.656;2024-02-26T17:24:39;26.90;;;13.80;;
84757;SDS011;74981;52.476;16.656;2024-02-26T17:29:42;27.60;;;15.00;;
84757;SDS011;74981;52.476;16.656;2024-02-26T17:34:44;27.70;;;15.50;;
84757;SDS011;74981;52.476;16.656;2024-02-26T17:39:47;27.90;;;13.70;;
84757;SDS011;74981;52.476;16.656;2024-02-26T17:44:49;21.90;;;13.10;;
84757;SDS011;74981;52.476;16.656;2024-02-26T17:50:00;31.10;;;17.20;;
84757;SDS011;74981;52.476;16.656;2024-02-26T17:55:02;33.90;;;17.70;;
84757;SDS011;74981;52.476;16.656;2024-02-26T18:00:06;30.80;;;17.40;;
84757;SDS011;74981;52.476;16.656;2024-02-26T18:05:09;24.70;;;13.90;;
84757;SDS011;74981;52.476;16.656;2024-02-26T18:10:11;29.30;;;15.70;;
84757;SDS011;74981;52.476;16.656;2024-02-26T18:15:14;31.20;;;18.60;;
84757;SDS011;74981;52.476;16.656;2024-02-26T18:20:16;27.80;;;15.40;;
84757;SDS011;74981;52.476;16.656;2024-02-26T18:25:18;26.90;;;13.90;;
84757;SDS011;74981;52.476;16.656;2024-02-26T18:30:21;37.00;;;19.90;;
84757;SDS011;74981;52.476;16.656;2024-02-26T18:35:23;36.00;;;18.80;;
84757;SDS011;74981;52.476;16.656;2024-02-26T18:40:27;34.30;;;17.20;;
84757;SDS011;74981;52.476;16.656;2024-02-26T18:45:29;29.10;;;15.20;;
84757;SDS011;74981;52.476;16.656;2024-02-26T18:50:31;32.70;;;18.10;;
84757;SDS011;74981;52.476;16.656;2024-02-26T18:55:33;33.40;;;17.00;;
84757;SDS011;74981;52.476;16.656;2024-02-26T19:00:37;32.60;;;17.10;;
84757;SDS011;74981;52.476;16.656;2024-02-26T19:05:39;32.90;;;15.90;;
84757;SDS011;74981;52.476;16.656;2024-02-26T19:10:41;30.10;;;15.50;;
84757;SDS011;74981;52.476;16.656;2024-02-26T19:15:44;31.00;;;15.90;;
84757;SDS011;74981;52.476;16.656;2024-02-26T19:20:46;32.50;;;17.50;;
84757;SDS011;74981;52.476;16.656;2024-02-26T19:25:49;27.40;;;13.90;;
84757;SDS011;74981;52.476;16.656;2024-02-26T19:30:51;28.40;;;17.00;;
84757;SDS011;74981;52.476;16.656;2024-02-26T19:35:53;21.80;;;12.50;;
84757;SDS011;74981;52.476;16.656;2024-02-26T19:40:56;29.50;;;17.70;;
84757;SDS011;74981;52.476;16.656;2024-02-26T19:46:14;28.80;;;14.90;;
84757;SDS011;74981;52.476;16.656;2024-02-26T19:51:17;30.70;;;13.20;;
84757;SDS011;74981;52.476;16.656;2024-02-26T19:56:19;28.30;;;14.70;;
84757;SDS011;74981;52.476;16.656;2024-02-26T20:01:22;28.60;;;13.00;;
84757;SDS011;74981;52.476;16.656;2024-02-26T20:06:24;25.60;;;13.70;;
84757;SDS011;74981;52.476;16.656;2024-02-26T20:11:27;23.40;;;13.50;;
84757;SDS011;74981;52.476;16.656;2024-02-26T20:16:29;25.40;;;12.90;;
84757;SDS011;74981;52.476;16.656;2024-02-26T20:21:31;22.10;;;11.70;;
84757;SDS011;74981;52.476;16.656;2024-02-26T20:26:34;27.90;;;14.60;;
84757;SDS011;74981;52.476;16.656;2024-02-26T20:31:37;25.00;;;14.70;;
84757;SDS011;74981;52.476;16.656;2024-02-26T20:36:40;25.40;;;13.60;;
84757;SDS011;74981;52.476;16.656;2024-02-26T20:41:42;32.00;;;16.70;;
84757;SDS011;74981;52.476;16.656;2024-02-26T20:46:45;27.00;;;15.40;;
84757;SDS011;74981;52.476;16.656;2024-02-26T20:51:47;24.30;;;12.90;;
84757;SDS011;74981;52.476;16.656;2024-02-26T20:56:49;24.00;;;11.40;;
84757;SDS011;74981;52.476;16.656;2024-02-26T21:01:52;30.10;;;15.80;;
84757;SDS011;74981;52.476;16.656;2024-02-26T21:06:54;31.80;;;17.90;;
84757;SDS011;74981;52.476;16.656;2024-02-26T21:11:56;22.60;;;12.80;;
84757;SDS011;74981;52.476;16.656;2024-02-26T21:16:58;21.20;;;10.90;;
84757;SDS011;74981;52.476;16.656;2024-02-26T21:22:01;27.20;;;13.80;;
84757;SDS011;74981;52.476;16.656;2024-02-26T21:27:03;24.50;;;12.50;;
84757;SDS011;74981;52.476;16.656;2024-02-26T21:32:06;19.90;;;10.70;;
84757;SDS011;74981;52.476;16.656;2024-02-26T21:37:08;22.80;;;12.20;;
84757;SDS011;74981;52.476;16.656;2024-02-26T21:42:11;25.70;;;12.70;;
84757;SDS011;74981;52.476;16.656;2024-02-26T21:47:13;21.00;;;11.40;;
84757;SDS011;74981;52.476;16.656;2024-02-26T21:52:16;24.80;;;12.40;;
84757;SDS011;74981;52.476;16.656;2024-02-26T21:57:18;23.00;;;13.10;;
84757;SDS011;74981;52.476;16.656;2024-02-26T22:02:20;18.20;;;9.80;;
84757;SDS011;74981;52.476;16.656;2024-02-26T22:07:23;29.00;;;15.60;;
84757;SDS011;74981;52.476;16.656;2024-02-26T22:12:25;27.20;;;15.10;;
84757;SDS011;74981;52.476;16.656;2024-02-26T22:17:27;28.60;;;15.30;;
84757;SDS011;74981;52.476;16.656;2024-02-26T22:22:29;24.80;;;13.40;;
84757;SDS011;74981;52.476;16.656;2024-02-26T22:27:32;25.00;;;14.30;;
84757;SDS011;74981;52.476;16.656;2024-02-26T22:32:34;32.10;;;16.70;;
84757;SDS011;74981;52.476;16.656;2024-02-26T22:37:36;29.40;;;15.50;;
84757;SDS011;74981;52.476;16.656;2024-02-26T22:42:39;29.90;;;16.00;;
84757;SDS011;74981;52.476;16.656;2024-02-26T22:47:41;31.30;;;16.70;;
84757;SDS011;74981;52.476;16.656;2024-02-26T22:52:43;34.00;;;17.90;;
84757;SDS011;74981;52.476;16.656;2024-02-26T22:57:46;31.10;;;17.90;;
84757;SDS011;74981;52.476;16.656;2024-02-26T23:02:48;29.50;;;16.50;;
84757;SDS011;74981;52.476;16.656;2024-02-26T23:07:50;34.90;;;17.40;;
84757;SDS011;74981;52.476;16.656;2024-02-26T23:12:53;31.50;;;16.20;;
84757;SDS011;74981;52.476;16.656;2024-02-26T23:17:56;30.40;;;15.90;;
84757;SDS011;74981;52.476;16.656;2024-02-26T23:22:59;36.70;;;18.70;;
84757;SDS011;74981;52.476;16.656;2024-02-26T23:28:01;32.40;;;17.30;;
84757;SDS011;74981;52.476;16.656;2024-02-26T23:33:04;34.70;;;17.80;;
84757;SDS011;74981;52.476;16.656;2024-02-26T23:38:06;32.80;;;18.50;;
84757;SDS011;74981;52.476;16.656;2024-02-26T23:43:09;25.80;;;15.40;;
84757;SDS011;74981;52.476;16.656;2024-02-26T23:48:11;31.70;;;17.80;;
84757;SDS011;74981;52.476;16.656;2024-02-26T23:53:14;35.70;;;17.90;;
84757;SDS011;74981;52.476;16.656;2024-02-26T23:58:20;34.50;;;19.20;;
